createdAt,value
2023-03-21T00:00:42.063Z,6.30
2023-03-21T00:03:09.355Z,5.65
2023-03-21T00:05:41.397Z,8.13
2023-03-21T00:08:08.992Z,6.50
2023-03-21T00:10:41.231Z,6.65
2023-03-21T00:16:19.638Z,5.70
2023-03-21T00:18:55.613Z,6.30
2023-03-21T00:24:15.577Z,5.75
2023-03-21T00:26:42.798Z,6.25
2023-03-21T00:29:10.059Z,6.07
2023-03-21T00:31:37.264Z,6.60
2023-03-21T00:34:04.564Z,7.20
2023-03-21T00:36:32.531Z,6.70
2023-03-21T00:39:01.040Z,7.55
2023-03-21T00:41:41.382Z,7.32
2023-03-21T00:44:09.816Z,7.68
2023-03-21T00:46:45.624Z,6.97
2023-03-21T00:49:20.777Z,7.55
2023-03-21T00:51:51.871Z,7.07
2023-03-21T00:54:19.722Z,7.63
2023-03-21T00:56:46.953Z,7.28
2023-03-21T00:59:14.225Z,6.68
2023-03-21T01:01:41.436Z,7.65
2023-03-21T01:04:13.725Z,7.15
2023-03-21T01:06:42.559Z,7.25
2023-03-21T01:09:14.424Z,7.43
2023-03-21T01:11:42.378Z,7.32
2023-03-21T01:14:23.265Z,7.55
2023-03-21T01:16:54.293Z,7.05
2023-03-21T01:19:35.195Z,7.20
2023-03-21T01:22:08.895Z,7.57
2023-03-21T01:24:40.507Z,7.63
2023-03-21T01:27:10.910Z,8.00
2023-03-21T01:29:38.164Z,7.60
2023-03-21T01:32:06.287Z,8.68
2023-03-21T01:34:33.568Z,7.38
2023-03-21T01:37:00.865Z,8.38
2023-03-21T01:39:28.130Z,8.98
2023-03-21T01:41:55.619Z,8.07
2023-03-21T01:44:22.938Z,8.38
2023-03-21T01:47:04.008Z,8.25
2023-03-21T01:49:39.264Z,7.43
2023-03-21T01:52:13.134Z,8.25
2023-03-21T01:54:45.612Z,8.60
2023-03-21T01:57:14.552Z,8.85
2023-03-21T01:59:43.892Z,7.95
2023-03-21T02:02:18.175Z,8.43
2023-03-21T02:04:50.986Z,8.65
2023-03-21T02:07:19.946Z,8.25
2023-03-21T02:09:48.434Z,7.38
2023-03-21T02:12:16.408Z,9.00
2023-03-21T02:14:44.134Z,7.50
2023-03-21T02:17:17.548Z,7.68
2023-03-21T02:20:07.035Z,7.75
2023-03-21T02:22:55.971Z,7.78
2023-03-21T02:25:32.395Z,8.10
2023-03-21T02:28:04.771Z,7.97
2023-03-21T02:30:52.392Z,8.38
2023-03-21T02:33:22.900Z,8.15
2023-03-21T02:35:54.469Z,8.43
2023-03-21T02:38:30.410Z,8.18
2023-03-21T02:41:18.957Z,7.63
2023-03-21T02:43:58.312Z,8.25
2023-03-21T02:46:43.889Z,8.93
2023-03-21T02:49:17.627Z,9.00
2023-03-21T02:51:46.017Z,9.57
2023-03-21T02:54:32.319Z,10.23
2023-03-21T02:57:04.478Z,9.95
2023-03-21T02:59:34.042Z,9.68
2023-03-21T03:02:03.171Z,8.82
2023-03-21T03:04:31.233Z,9.40
2023-03-21T03:07:08.001Z,9.45
2023-03-21T03:09:41.409Z,10.27
2023-03-21T03:12:11.749Z,9.57
2023-03-21T03:15:02.414Z,10.35
2023-03-21T03:17:33.376Z,10.52
2023-03-21T03:20:16.663Z,10.85
2023-03-21T03:22:47.487Z,11.77
2023-03-21T03:25:29.813Z,11.95
2023-03-21T03:28:08.373Z,10.52
2023-03-21T03:30:44.729Z,10.02
2023-03-21T03:33:17.270Z,10.20
2023-03-21T03:35:48.254Z,9.38
2023-03-21T03:38:22.160Z,9.63
2023-03-21T03:40:50.715Z,9.75
2023-03-21T03:43:21.253Z,9.30
2023-03-21T03:45:49.976Z,8.80
2023-03-21T03:48:25.268Z,9.02
2023-03-21T03:53:41.845Z,8.82
2023-03-21T03:56:11.655Z,9.00
2023-03-21T03:58:45.825Z,9.07
2023-03-21T04:01:14.294Z,8.98
2023-03-21T04:03:49.752Z,10.13
2023-03-21T04:06:18.498Z,9.98
2023-03-21T04:08:45.882Z,10.93
2023-03-21T04:11:15.668Z,9.88
2023-03-21T04:13:43.071Z,8.63
2023-03-21T04:16:11.879Z,9.35
2023-03-21T04:18:39.384Z,11.90
2023-03-21T04:21:13.896Z,9.98
2023-03-21T04:23:41.697Z,8.88
2023-03-21T04:26:09.357Z,9.18
2023-03-21T04:28:37.315Z,9.63
2023-03-21T04:31:22.651Z,9.27
2023-03-21T04:33:52.616Z,9.75
2023-03-21T04:36:27.856Z,9.27
2023-03-21T04:41:22.286Z,7.82
2023-03-21T04:43:49.695Z,8.32
2023-03-21T04:46:17.009Z,9.07
2023-03-21T04:48:44.355Z,8.65
2023-03-21T04:51:11.622Z,9.05
2023-03-21T04:53:39.598Z,9.43
2023-03-21T04:56:07.235Z,9.85
2023-03-21T04:58:34.576Z,9.45
2023-03-21T05:01:02.641Z,10.38
2023-03-21T05:03:34.638Z,8.30
2023-03-21T05:06:02.101Z,7.68
2023-03-21T05:08:29.386Z,8.18
2023-03-21T05:10:56.645Z,8.32
2023-03-21T05:13:23.912Z,8.23
2023-03-21T05:15:51.175Z,9.20
2023-03-21T05:18:24.912Z,8.27
2023-03-21T05:20:56.325Z,8.98
2023-03-21T05:23:24.437Z,8.02
2023-03-21T05:25:52.041Z,7.55
2023-03-21T05:28:19.447Z,8.13
2023-03-21T05:30:47.011Z,9.63
2023-03-21T05:33:14.361Z,9.55
2023-03-21T05:35:41.685Z,9.52
2023-03-21T05:38:08.948Z,8.85
2023-03-21T05:40:36.210Z,8.38
2023-03-21T05:43:03.498Z,7.75
2023-03-21T05:45:30.988Z,7.45
2023-03-21T05:47:58.273Z,6.93
2023-03-21T05:50:25.607Z,6.72
2023-03-21T05:52:52.939Z,8.43
2023-03-21T05:55:20.234Z,7.60
2023-03-21T05:57:47.538Z,7.65
2023-03-21T06:00:15.569Z,7.55
2023-03-21T06:02:42.991Z,8.93
2023-03-21T06:05:10.463Z,9.52
2023-03-21T06:07:37.896Z,10.57
2023-03-21T06:10:05.776Z,9.75
2023-03-21T06:12:33.239Z,9.85
2023-03-21T06:15:01.261Z,11.32
2023-03-21T06:17:28.491Z,11.65
2023-03-21T06:19:55.852Z,12.23
2023-03-21T06:22:23.180Z,10.48
2023-03-21T06:24:50.418Z,10.55
2023-03-21T06:27:17.720Z,10.82
2023-03-21T06:29:46.450Z,10.00
2023-03-21T06:32:14.134Z,10.40
2023-03-21T06:34:41.435Z,9.48
2023-03-21T06:37:08.702Z,9.40
2023-03-21T06:39:36.290Z,10.75
2023-03-21T06:42:03.850Z,9.65
2023-03-21T06:44:31.163Z,10.88
2023-03-21T06:46:58.539Z,9.13
2023-03-21T06:49:26.890Z,9.05
2023-03-21T06:51:54.242Z,10.20
2023-03-21T06:54:21.576Z,10.02
2023-03-21T06:56:48.944Z,8.93
2023-03-21T06:59:16.286Z,9.43
2023-03-21T07:01:43.615Z,10.88
2023-03-21T07:04:11.111Z,9.57
2023-03-21T07:06:38.370Z,8.55
2023-03-21T07:09:05.908Z,9.50
2023-03-21T07:11:33.423Z,9.43
2023-03-21T07:14:00.689Z,14.02
2023-03-21T07:16:28.095Z,10.32
2023-03-21T07:18:55.427Z,10.43
2023-03-21T07:21:22.960Z,8.50
2023-03-21T07:23:50.436Z,9.15
2023-03-21T07:26:18.590Z,9.18
2023-03-21T07:28:46.129Z,8.32
2023-03-21T07:31:14.591Z,8.63
2023-03-21T07:33:42.142Z,9.93
2023-03-21T07:36:16.439Z,8.35
2023-03-21T07:38:44.334Z,8.10
2023-03-21T07:41:11.682Z,8.82
2023-03-21T07:43:39.553Z,8.50
2023-03-21T07:46:07.012Z,8.82
2023-03-21T07:48:34.401Z,8.18
2023-03-21T07:51:02.416Z,8.10
2023-03-21T07:53:29.850Z,8.05
2023-03-21T07:55:57.149Z,8.13
2023-03-21T07:58:25.071Z,7.63
2023-03-21T08:00:53.101Z,7.35
2023-03-21T08:03:20.605Z,6.30
2023-03-21T08:05:47.959Z,7.30
2023-03-21T08:08:15.359Z,6.60
2023-03-21T08:10:45.692Z,6.25
2023-03-21T08:13:13.661Z,6.90
2023-03-21T08:15:42.521Z,5.95
2023-03-21T08:18:10.369Z,6.97
2023-03-21T08:20:37.682Z,6.97
2023-03-21T08:23:05.012Z,6.55
2023-03-21T08:25:32.810Z,6.82
2023-03-21T08:28:00.346Z,6.95
2023-03-21T08:30:28.837Z,7.05
2023-03-21T08:33:01.396Z,6.70
2023-03-21T08:35:29.512Z,6.28
2023-03-21T08:37:57.388Z,6.38
2023-03-21T08:40:24.779Z,6.40
2023-03-21T08:42:52.066Z,6.25
2023-03-21T08:45:19.364Z,7.10
2023-03-21T08:47:47.416Z,7.15
2023-03-21T08:50:16.724Z,6.22
2023-03-21T08:52:44.409Z,5.93
2023-03-21T08:55:12.053Z,6.65
2023-03-21T08:57:39.506Z,7.57
2023-03-21T09:00:14.471Z,6.88
2023-03-21T09:02:42.786Z,7.40
2023-03-21T09:05:12.191Z,6.78
2023-03-21T09:07:40.356Z,6.57
2023-03-21T09:10:20.508Z,8.07
2023-03-21T09:12:53.387Z,7.57
2023-03-21T09:15:21.900Z,7.82
2023-03-21T09:17:52.689Z,7.97
2023-03-21T09:20:22.717Z,7.38
2023-03-21T09:22:52.397Z,6.50
2023-03-21T09:25:20.755Z,7.45
2023-03-21T09:27:48.051Z,7.57
2023-03-21T09:30:17.142Z,6.88
2023-03-21T09:32:48.915Z,7.72
2023-03-21T09:35:18.856Z,7.55
2023-03-21T09:37:47.406Z,6.50
2023-03-21T09:40:35.127Z,7.15
2023-03-21T09:43:17.248Z,8.52
2023-03-21T09:45:50.468Z,7.80
2023-03-21T09:48:31.888Z,7.00
2023-03-21T09:50:59.203Z,6.75
2023-03-21T09:53:29.005Z,7.55
2023-03-21T09:55:56.447Z,7.13
2023-03-21T09:58:29.442Z,7.57
2023-03-21T10:01:01.295Z,7.97
2023-03-21T10:03:35.232Z,7.75
2023-03-21T10:06:08.368Z,7.93
2023-03-21T10:08:37.510Z,7.63
2023-03-21T10:11:08.643Z,8.48
2023-03-21T10:13:54.024Z,7.75
2023-03-21T10:16:28.948Z,8.05
2023-03-21T10:18:57.012Z,7.72
2023-03-21T10:24:15.892Z,7.57
2023-03-21T10:26:44.065Z,7.82
2023-03-21T10:29:13.348Z,8.52
2023-03-21T10:31:41.225Z,7.38
2023-03-21T10:34:17.495Z,8.35
2023-03-21T10:36:45.092Z,7.35
2023-03-21T10:39:35.746Z,8.43
2023-03-21T10:42:03.110Z,8.88
2023-03-21T10:44:34.319Z,7.93
2023-03-21T10:47:06.594Z,7.15
2023-03-21T10:49:40.748Z,7.95
2023-03-21T10:52:19.740Z,7.72
2023-03-21T10:54:47.591Z,7.95
2023-03-21T10:57:24.249Z,8.18
2023-03-21T10:59:53.920Z,7.93
2023-03-21T11:02:25.375Z,8.27
2023-03-21T11:04:54.057Z,7.88
2023-03-21T11:07:21.792Z,6.97
2023-03-21T11:09:53.505Z,7.30
2023-03-21T11:12:30.640Z,7.75
2023-03-21T11:14:57.951Z,7.63
2023-03-21T11:17:29.019Z,7.70
2023-03-21T11:20:00.361Z,7.10
2023-03-21T11:22:31.602Z,7.88
2023-03-21T11:25:00.796Z,8.27
2023-03-21T11:27:30.178Z,7.53
2023-03-21T11:29:58.357Z,8.25
2023-03-21T11:32:34.120Z,7.72
2023-03-21T11:35:02.520Z,7.38
2023-03-21T11:37:29.756Z,7.47
2023-03-21T11:40:09.586Z,7.25
2023-03-21T11:42:48.254Z,6.70
2023-03-21T11:45:17.430Z,6.80
2023-03-21T11:47:45.967Z,6.40
2023-03-21T11:50:21.966Z,6.15
2023-03-21T11:53:04.515Z,6.82
2023-03-21T11:55:34.823Z,6.40
2023-03-21T11:58:14.343Z,6.43
2023-03-21T12:01:12.387Z,6.72
2023-03-21T12:03:47.386Z,6.07
2023-03-21T12:06:23.390Z,6.05
2023-03-21T12:08:53.729Z,6.35
2023-03-21T12:11:27.534Z,6.10
2023-03-21T12:14:07.384Z,7.57
2023-03-21T12:16:53.181Z,6.50
2023-03-21T12:19:35.514Z,6.72
2023-03-21T12:22:28.948Z,7.07
2023-03-21T12:24:57.614Z,7.43
2023-03-21T12:27:43.917Z,7.97
2023-03-21T12:30:17.089Z,6.38
2023-03-21T12:32:47.106Z,6.57
2023-03-21T12:35:17.439Z,6.90
2023-03-21T12:37:47.934Z,6.30
2023-03-21T12:40:17.931Z,7.45
2023-03-21T12:42:45.286Z,6.40
2023-03-21T12:45:15.827Z,6.57
2023-03-21T12:47:46.466Z,7.82
2023-03-21T12:50:16.473Z,7.18
2023-03-21T12:52:45.521Z,6.72
2023-03-21T12:55:21.704Z,6.32
2023-03-21T12:57:57.213Z,5.80
2023-03-21T13:00:33.001Z,6.65
2023-03-21T13:05:32.886Z,6.15
2023-03-21T13:08:02.826Z,5.43
2023-03-21T13:10:30.441Z,5.95
2023-03-21T13:13:13.549Z,6.28
2023-03-21T13:15:48.517Z,6.97
2023-03-21T13:18:34.039Z,6.68
2023-03-21T13:21:05.258Z,6.18
2023-03-21T13:23:40.016Z,6.03
2023-03-21T13:26:11.381Z,5.55
2023-03-21T13:28:40.365Z,6.55
2023-03-21T13:31:25.918Z,6.57
2023-03-21T13:36:28.132Z,6.68
2023-03-21T13:39:00.511Z,6.15
2023-03-21T13:41:33.277Z,6.13
2023-03-21T13:44:03.299Z,6.18
2023-03-21T13:46:34.189Z,7.10
2023-03-21T13:49:11.068Z,7.88
2023-03-21T13:51:43.024Z,7.30
2023-03-21T13:54:18.929Z,8.05
2023-03-21T13:56:46.672Z,7.15
2023-03-21T13:59:14.012Z,7.53
2023-03-21T14:01:42.480Z,7.03
2023-03-21T14:04:14.696Z,6.80
2023-03-21T14:06:41.927Z,6.82
2023-03-21T14:09:10.664Z,8.80
2023-03-21T14:11:41.894Z,6.95
2023-03-21T14:14:11.662Z,8.07
2023-03-21T14:16:39.526Z,8.77
2023-03-21T14:19:07.155Z,8.10
2023-03-21T14:21:35.568Z,6.78
2023-03-21T14:24:07.289Z,7.13
2023-03-21T14:26:41.032Z,11.13
2023-03-21T14:29:22.772Z,8.05
2023-03-21T14:31:52.241Z,6.40
2023-03-21T14:34:19.769Z,9.07
2023-03-21T14:36:55.439Z,11.57
2023-03-21T14:39:27.070Z,7.25
2023-03-21T14:41:55.747Z,8.27
2023-03-21T14:44:28.050Z,9.85
2023-03-21T14:47:01.237Z,7.35
2023-03-21T14:49:29.894Z,7.88
2023-03-21T14:51:59.066Z,7.85
2023-03-21T14:54:27.467Z,7.97
2023-03-21T14:56:58.415Z,7.38
2023-03-21T14:59:27.199Z,7.15
2023-03-21T15:01:55.703Z,7.22
2023-03-21T15:04:23.042Z,7.05
2023-03-21T15:06:57.538Z,7.57
2023-03-21T15:09:27.295Z,10.50
2023-03-21T15:11:55.313Z,9.20
2023-03-21T15:14:26.209Z,11.18
2023-03-21T15:16:54.264Z,9.75
2023-03-21T15:19:30.684Z,7.60
2023-03-21T15:22:01.198Z,10.00
2023-03-21T15:24:31.478Z,9.38
2023-03-21T15:27:04.348Z,7.68
2023-03-21T15:29:31.818Z,6.40
2023-03-21T15:31:59.773Z,6.13
2023-03-21T15:34:30.847Z,6.20
2023-03-21T15:36:59.485Z,7.82
2023-03-21T15:39:28.338Z,6.25
2023-03-21T15:42:06.555Z,5.97
2023-03-21T15:44:35.251Z,6.82
2023-03-21T15:47:02.724Z,8.32
2023-03-21T15:49:30.023Z,7.25
2023-03-21T15:52:14.980Z,7.20
2023-03-21T15:54:44.035Z,7.38
2023-03-21T15:57:38.159Z,7.03
2023-03-21T16:00:12.041Z,6.93
2023-03-21T16:02:40.013Z,7.30
2023-03-21T16:05:23.086Z,6.78
2023-03-21T16:07:50.623Z,7.05
2023-03-21T16:10:30.120Z,7.93
2023-03-21T16:12:57.379Z,7.68
2023-03-21T16:15:25.786Z,7.47
2023-03-21T16:17:58.128Z,8.02
2023-03-21T16:20:27.205Z,6.57
2023-03-21T16:22:54.763Z,6.60
2023-03-21T16:25:22.716Z,7.05
2023-03-21T16:27:50.039Z,7.57
2023-03-21T16:30:19.229Z,7.57
2023-03-21T16:32:46.778Z,7.13
2023-03-21T16:35:14.368Z,9.38
2023-03-21T16:37:41.704Z,9.27
2023-03-21T16:40:26.065Z,9.75
2023-03-21T16:42:53.336Z,8.88
2023-03-21T16:45:20.726Z,8.38
2023-03-21T16:47:48.073Z,9.05
2023-03-21T16:50:22.774Z,7.70
2023-03-21T16:52:50.112Z,7.30
2023-03-21T16:55:17.426Z,7.90
2023-03-21T16:57:45.682Z,7.63
2023-03-21T17:00:13.912Z,7.63
2023-03-21T17:02:41.209Z,7.57
2023-03-21T17:05:08.652Z,9.70
2023-03-21T17:07:35.951Z,10.82
2023-03-21T17:10:03.195Z,10.60
2023-03-21T17:12:30.562Z,13.95
2023-03-21T17:14:57.780Z,16.40
2023-03-21T17:17:25.140Z,13.73
2023-03-21T17:19:52.409Z,57.08
2023-03-21T17:22:19.661Z,87.63
2023-03-21T17:24:47.487Z,17.30
2023-03-21T17:27:15.936Z,12.75
2023-03-21T17:29:43.300Z,11.52
2023-03-21T17:32:10.697Z,12.85
2023-03-21T17:34:37.948Z,11.02
2023-03-21T17:37:05.474Z,10.80
2023-03-21T17:39:33.149Z,11.13
2023-03-21T17:42:00.424Z,10.50
2023-03-21T17:44:27.683Z,10.50
2023-03-21T17:46:54.996Z,10.30
2023-03-21T17:49:22.609Z,10.73
2023-03-21T17:51:50.548Z,10.18
2023-03-21T17:54:17.812Z,10.07
2023-03-21T17:56:45.392Z,10.30
2023-03-21T17:59:13.458Z,10.07
2023-03-21T18:01:40.809Z,10.98
2023-03-21T18:04:08.231Z,9.23
2023-03-21T18:06:37.548Z,9.43
2023-03-21T18:09:11.397Z,9.60
2023-03-21T18:11:40.427Z,9.65
2023-03-21T18:14:16.278Z,11.00
2023-03-21T18:16:44.522Z,9.80
2023-03-21T18:19:13.355Z,11.65
2023-03-21T18:21:44.838Z,12.27
2023-03-21T18:24:12.536Z,14.55
2023-03-21T18:26:39.775Z,12.93
2023-03-21T18:30:13.115Z,13.23
2023-03-21T18:32:05.887Z,10.73
2023-03-21T18:34:35.458Z,10.43
2023-03-21T18:37:04.134Z,10.15
2023-03-21T18:39:31.985Z,11.68
2023-03-21T18:42:02.633Z,10.35
2023-03-21T18:44:37.428Z,10.73
2023-03-21T18:47:05.407Z,9.45
2023-03-21T18:50:06.021Z,9.27
2023-03-21T18:52:20.181Z,9.43
2023-03-21T18:54:48.045Z,9.05
2023-03-21T18:57:35.760Z,9.07
2023-03-21T19:00:17.024Z,7.97
2023-03-21T19:02:47.670Z,9.15
2023-03-21T19:05:16.636Z,9.85
2023-03-21T19:07:44.011Z,10.73
2023-03-21T19:10:18.097Z,11.88
2023-03-21T19:12:46.188Z,12.20
2023-03-21T19:15:13.871Z,10.80
2023-03-21T19:18:30.694Z,10.80
2023-03-21T19:20:28.703Z,11.27
2023-03-21T19:22:56.530Z,8.50
2023-03-21T19:25:23.815Z,10.10
2023-03-21T19:27:52.221Z,9.50
2023-03-21T19:30:19.800Z,8.30
2023-03-21T19:32:47.214Z,8.95
2023-03-21T19:35:14.623Z,9.93
2023-03-21T19:37:42.376Z,8.35
2023-03-21T19:40:10.316Z,8.98
2023-03-21T19:42:37.899Z,9.60
2023-03-21T19:45:05.875Z,9.13
2023-03-21T19:47:33.243Z,10.48
2023-03-21T19:50:58.026Z,10.25
2023-03-21T19:52:47.876Z,11.38
2023-03-21T19:55:15.531Z,9.23
2023-03-21T19:57:42.844Z,9.07
2023-03-21T20:00:11.656Z,7.13
2023-03-21T20:02:39.220Z,7.70
2023-03-21T20:05:07.925Z,7.70
2023-03-21T20:07:35.592Z,8.55
2023-03-21T20:10:02.922Z,7.40
2023-03-21T20:12:32.190Z,7.43
2023-03-21T20:15:12.075Z,8.48
2023-03-21T20:17:44.330Z,6.93
2023-03-21T20:20:15.097Z,7.30
2023-03-21T20:23:05.797Z,6.57
2023-03-21T20:25:31.261Z,5.30
2023-03-21T20:28:14.689Z,5.38
2023-03-21T20:30:47.369Z,5.40
2023-03-21T20:33:14.748Z,5.25
2023-03-21T20:38:33.143Z,5.43
2023-03-21T20:41:01.003Z,5.88
2023-03-21T20:44:20.478Z,4.68
2023-03-21T20:46:16.651Z,5.57
2023-03-21T20:48:43.879Z,5.90
2023-03-21T20:53:59.750Z,5.38
2023-03-21T20:56:27.588Z,5.22
2023-03-21T20:59:08.366Z,6.40
2023-03-21T21:01:43.295Z,6.63
2023-03-21T21:04:11.688Z,6.30
2023-03-21T21:06:39.341Z,6.18
2023-03-21T21:09:06.640Z,6.15
2023-03-21T21:14:21.140Z,7.30
2023-03-21T21:16:48.508Z,6.53
2023-03-21T21:19:18.883Z,6.68
2023-03-21T21:21:46.952Z,6.95
2023-03-21T21:24:14.825Z,6.82
2023-03-21T21:26:46.320Z,6.78
2023-03-21T21:29:17.504Z,6.78
2023-03-21T21:31:49.096Z,6.38
2023-03-21T21:34:18.166Z,7.18
2023-03-21T21:36:45.756Z,7.95
2023-03-21T21:39:15.938Z,8.40
2023-03-21T21:41:43.574Z,8.60
2023-03-21T21:44:11.495Z,10.80
2023-03-21T21:46:39.084Z,13.10
2023-03-21T21:49:06.790Z,14.10
2023-03-21T21:51:35.073Z,13.75
2023-03-21T21:54:04.410Z,11.07
2023-03-21T21:56:36.371Z,9.95
2023-03-21T21:59:05.563Z,9.77
2023-03-21T22:01:38.682Z,10.55
2023-03-21T22:04:11.193Z,11.75
2023-03-21T22:06:38.646Z,13.38
2023-03-21T22:09:07.128Z,16.58
2023-03-21T22:11:34.504Z,17.30
2023-03-21T22:14:01.723Z,14.45
2023-03-21T22:16:29.070Z,12.40
2023-03-21T22:18:56.396Z,11.23
2023-03-21T22:21:23.646Z,11.05
2023-03-21T22:23:51.124Z,13.80
2023-03-21T22:26:18.514Z,14.52
2023-03-21T22:28:45.903Z,14.00
2023-03-21T22:31:15.830Z,11.93
2023-03-21T22:33:43.572Z,11.20
2023-03-21T22:36:11.227Z,10.18
2023-03-21T22:38:38.537Z,10.02
2023-03-21T22:41:06.980Z,9.85
2023-03-21T22:43:35.453Z,9.60
2023-03-21T22:46:06.612Z,7.68
2023-03-21T22:48:34.850Z,8.48
2023-03-21T22:51:02.118Z,7.35
2023-03-21T22:53:29.416Z,8.15
2023-03-21T22:55:56.754Z,7.45
2023-03-21T22:58:24.251Z,6.45
2023-03-21T23:00:52.034Z,8.00
2023-03-21T23:03:19.458Z,7.75
2023-03-21T23:05:46.769Z,6.97
2023-03-21T23:08:14.076Z,10.13
2023-03-21T23:10:45.483Z,8.95
2023-03-21T23:13:12.849Z,10.70
2023-03-21T23:15:40.229Z,11.15
2023-03-21T23:18:07.482Z,11.10
2023-03-21T23:20:34.947Z,9.77
2023-03-21T23:23:02.400Z,11.60
2023-03-21T23:25:30.514Z,12.25
2023-03-21T23:27:57.966Z,12.63
2023-03-21T23:30:25.252Z,12.35
2023-03-21T23:32:52.618Z,10.90
2023-03-21T23:35:20.056Z,11.25
2023-03-21T23:37:52.799Z,10.43
2023-03-21T23:40:21.007Z,11.15
2023-03-21T23:42:48.317Z,10.73
2023-03-21T23:45:15.682Z,10.48
2023-03-21T23:47:42.987Z,11.27
2023-03-21T23:50:11.205Z,11.32
2023-03-21T23:52:38.788Z,9.10
2023-03-21T23:55:06.888Z,11.45
2023-03-21T23:57:34.361Z,11.95
